Terminal Aerodrome Forecast
Issued by NWS

Home | Current Version | Previous Version | Text Only | Print | Product List | Glossary On
Versions: 1 2 3 4 5 6 7 8 9 10 11 12 13 14 15 16 17 18 19 20 21 22 23 24 25 26 27 28 29
916
FTUS42 KCAE 241329 AAA
TAFOGB
TAF AMD
KOGB 241329Z 2413/2512 21005KT P6SM SCT011 BKN090
      TEMPO 2413/2415 SCT005 BKN011
     FM241500 24009KT P6SM SCT050
     FM242100 20006KT P6SM VCTS BKN050CB
     FM250300 21004KT P6SM SCT006 BKN050=

USA.gov is the U.S. government's official web portal to all federal, state and local government web resources and services.